Time;durP1;ratioP1;P1;durP2;ratioP2;P2;SDS_P1;SDS_P2;PMS_P1;PMS_P2;Temp;Humidity;BMP_temperature;BMP_pressure;BME280_temperature;BME280_humidity;BME280_pressure;Samples;Min_cycle;Max_cycle;Signal;HPM_P1;HPM_P2
2022/07/17 00:02:26;;;;;;;4.77;4.47;;;17.80;73.80;;;;;;5003104;28;21057;-82
2022/07/17 00:04:54;;;;;;;4.63;4.27;;;17.70;74.40;;;;;;5002549;28;20986;-82
2022/07/17 00:07:21;;;;;;;4.30;4.00;;;17.70;74.60;;;;;;5002506;28;21003;-82
2022/07/17 00:09:48;;;;;;;5.23;4.63;;;17.60;75.20;;;;;;5002603;28;20489;-82
2022/07/17 00:12:14;;;;;;;4.57;4.27;;;17.50;75.70;;;;;;5002580;28;20454;-82
2022/07/17 00:14:41;;;;;;;5.50;4.87;;;17.50;76.10;;;;;;5002838;28;20581;-79
2022/07/17 00:17:08;;;;;;;4.03;3.73;;;17.50;76.30;;;;;;5001980;28;20455;-82
2022/07/17 00:19:35;;;;;;;6.10;4.03;;;17.40;76.60;;;;;;5003277;28;20954;-82
2022/07/17 00:22:03;;;;;;;5.10;4.70;;;17.40;77.00;;;;;;5002168;28;20466;-80
2022/07/17 00:24:30;;;;;;;5.47;5.07;;;17.40;77.40;;;;;;5002682;28;20481;-79
2022/07/17 00:26:56;;;;;;;5.70;5.20;;;17.20;78.70;;;;;;5002964;28;20458;-81
2022/07/17 00:29:23;;;;;;;4.20;3.90;;;17.10;78.60;;;;;;5003218;28;20458;-82
2022/07/17 00:31:50;;;;;;;4.30;4.00;;;17.00;79.10;;;;;;5001489;28;20457;-80
2022/07/17 00:34:17;;;;;;;5.90;4.03;;;16.90;79.70;;;;;;5002089;28;20477;-82
2022/07/17 00:36:44;;;;;;;4.23;3.93;;;17.00;79.80;;;;;;5001940;28;20465;-82
2022/07/17 00:39:12;;;;;;;4.60;4.27;;;17.00;80.30;;;;;;5002132;28;20450;-81
2022/07/17 00:41:39;;;;;;;5.03;4.53;;;17.10;81.80;;;;;;5001778;28;20451;-82
2022/07/17 00:44:08;;;;;;;5.37;4.97;;;17.10;82.50;;;;;;5001214;28;20509;-80
2022/07/17 00:46:35;;;;;;;5.20;4.80;;;17.10;83.50;;;;;;5001039;28;20466;-82
2022/07/17 00:49:03;;;;;;;5.43;4.37;;;17.10;83.40;;;;;;5001901;28;20459;-78
2022/07/17 00:51:30;;;;;;;4.73;4.40;;;17.10;84.00;;;;;;5001377;28;20489;-82
2022/07/17 00:53:59;;;;;;;5.90;5.40;;;17.00;84.40;;;;;;5001257;28;20988;-80
2022/07/17 00:56:28;;;;;;;5.90;5.37;;;17.00;84.90;;;;;;5000965;28;20451;-82
2022/07/17 00:58:55;;;;;;;5.70;5.00;;;17.00;85.10;;;;;;5000859;28;20457;-81
2022/07/17 01:01:22;;;;;;;5.30;4.90;;;16.90;85.00;;;;;;5001514;28;20462;-82
2022/07/17 01:03:49;;;;;;;5.47;5.03;;;16.90;85.50;;;;;;5001381;28;20857;-82
2022/07/17 01:06:16;;;;;;;5.23;4.73;;;16.70;87.60;;;;;;5001255;28;20461;-82
2022/07/17 01:08:42;;;;;;;5.40;4.90;;;16.60;88.20;;;;;;5001442;28;20465;-82
2022/07/17 01:11:09;;;;;;;4.80;4.40;;;16.60;88.90;;;;;;5000408;28;20996;-81
2022/07/17 01:13:37;;;;;;;5.53;5.13;;;16.60;89.10;;;;;;5000740;28;20514;-82
2022/07/17 01:16:05;;;;;;;5.20;4.80;;;16.60;89.70;;;;;;5000916;28;20482;-82
2022/07/17 01:18:31;;;;;;;5.40;5.10;;;16.60;90.00;;;;;;5001562;28;20462;-82
2022/07/17 01:21:05;;;;;;;5.93;5.37;;;16.60;90.10;;;;;;5000494;28;20457;-82
2022/07/17 01:23:31;;;;;;;5.17;4.77;;;16.60;90.40;;;;;;5001039;28;20461;-81
2022/07/17 01:25:58;;;;;;;5.43;4.97;;;16.50;90.40;;;;;;5000653;28;20484;-82
2022/07/17 01:28:25;;;;;;;5.00;4.60;;;16.60;90.50;;;;;;5002426;28;20457;-82
2022/07/17 01:30:53;;;;;;;6.60;5.83;;;16.50;90.70;;;;;;5005882;28;20497;-81
2022/07/17 01:33:20;;;;;;;5.90;5.40;;;16.50;91.00;;;;;;5006729;28;20465;-82
2022/07/17 01:35:47;;;;;;;5.37;4.97;;;16.50;91.00;;;;;;5005274;28;20470;-79
2022/07/17 01:38:16;;;;;;;5.50;5.13;;;16.50;91.10;;;;;;5006858;28;20469;-82
2022/07/17 01:40:43;;;;;;;6.50;6.00;;;16.50;91.20;;;;;;5008379;28;20473;-82
2022/07/17 01:43:09;;;;;;;5.90;5.40;;;16.50;91.20;;;;;;5001733;28;20484;-82
2022/07/17 01:45:36;;;;;;;6.10;5.07;;;16.50;91.40;;;;;;5000395;28;20519;-82
2022/07/17 01:48:03;;;;;;;6.90;6.30;;;16.40;91.50;;;;;;5000919;28;20457;-82
2022/07/17 01:50:30;;;;;;;4.97;4.57;;;16.20;91.90;;;;;;5001198;28;20512;-82
2022/07/17 01:52:57;;;;;;;6.20;5.40;;;16.00;91.60;;;;;;5000567;28;20788;-82
2022/07/17 01:55:25;;;;;;;5.20;4.80;;;15.80;91.40;;;;;;5000844;28;20496;-82
2022/07/17 01:57:52;;;;;;;5.23;4.73;;;15.90;91.20;;;;;;4999750;28;20456;-83
2022/07/17 02:00:21;;;;;;;4.93;4.47;;;15.80;91.30;;;;;;5000654;28;20454;-82
2022/07/17 02:02:48;;;;;;;5.20;4.57;;;15.90;91.30;;;;;;5000201;28;20453;-82
2022/07/17 02:05:14;;;;;;;5.33;4.97;;;16.00;90.90;;;;;;5000537;28;20480;-80
2022/07/17 02:07:43;;;;;;;4.63;4.23;;;16.10;90.80;;;;;;5001787;28;20469;-82
2022/07/17 02:10:11;;;;;;;4.60;4.30;;;16.20;90.70;;;;;;4999801;28;20457;-83
2022/07/17 02:12:39;;;;;;;5.20;4.77;;;16.20;90.70;;;;;;5000078;28;20461;-82
2022/07/17 12:35:07;;;;;;;2.10;2.00;;;36.80;27.80;;;;;;5011358;28;20467;-86
2022/07/17 12:38:21;;;;;;;2.83;2.73;;;36.90;28.00;;;;;;5013055;28;20826;-86
2022/07/17 12:44:45;;;;;;;2.50;2.40;;;35.70;27.50;;;;;;5012712;28;20458;-86
2022/07/17 12:47:13;;;;;;;2.83;2.63;;;35.70;28.40;;;;;;5038306;23;20473;-79
2022/07/17 12:49:40;;;;;;;2.47;2.37;;;35.50;27.90;;;;;;4999063;28;20463;-79
2022/07/17 12:52:06;;;;;;;2.97;2.77;;;36.10;28.90;;;;;;4999320;28;20521;-80
2022/07/17 12:54:33;;;;;;;3.70;2.83;;;36.90;29.00;;;;;;4998869;28;20455;-80
2022/07/17 12:57:00;;;;;;;2.70;2.50;;;37.80;28.20;;;;;;4998369;28;20823;-80
2022/07/17 12:59:27;;;;;;;4.40;2.97;;;38.80;27.10;;;;;;4998233;28;20484;-80
2022/07/17 13:01:54;;;;;;;2.77;2.67;;;39.50;27.10;;;;;;5004155;28;20483;-79
2022/07/17 13:04:22;;;;;;;3.07;2.87;;;40.00;25.50;;;;;;5001123;28;20527;-80
2022/07/17 13:06:49;;;;;;;3.03;2.70;;;40.00;25.60;;;;;;4997386;28;20458;-80
2022/07/17 13:09:15;;;;;;;2.60;2.50;;;40.60;26.50;;;;;;4997968;28;20558;-80
2022/07/17 13:11:43;;;;;;;2.60;2.37;;;40.40;24.40;;;;;;4997490;28;20443;-80
2022/07/17 13:14:11;;;;;;;3.00;2.80;;;39.50;25.10;;;;;;4997347;28;20459;-80
2022/07/17 13:16:38;;;;;;;3.30;2.53;;;38.90;25.60;;;;;;5002029;28;20482;-80
2022/07/17 13:19:05;;;;;;;2.83;2.73;;;39.00;25.90;;;;;;5003008;28;20474;-80
2022/07/17 13:21:34;;;;;;;2.40;2.30;;;39.00;25.90;;;;;;4997687;28;20455;-80
2022/07/17 13:24:01;;;;;;;3.83;2.50;;;38.10;25.50;;;;;;4996727;28;20492;-80
2022/07/17 13:26:27;;;;;;;2.60;2.40;;;37.50;25.80;;;;;;4996621;28;20837;-80
2022/07/17 13:28:54;;;;;;;3.20;3.10;;;37.90;25.60;;;;;;4996718;28;20471;-80
2022/07/17 13:31:21;;;;;;;2.40;2.30;;;38.40;26.60;;;;;;4997312;28;20459;-80
2022/07/17 13:33:48;;;;;;;2.70;2.50;;;39.00;25.30;;;;;;4997077;28;20462;-80
2022/07/17 13:36:14;;;;;;;2.30;2.20;;;39.50;24.00;;;;;;4996781;28;20451;-81
2022/07/17 13:38:42;;;;;;;2.83;2.63;;;38.00;24.70;;;;;;4997210;28;20475;-80
2022/07/17 13:41:09;;;;;;;2.63;2.50;;;37.80;24.50;;;;;;4996992;28;20451;-80
2022/07/17 13:43:36;;;;;;;2.67;2.47;;;37.90;25.30;;;;;;4996662;28;20490;-80
2022/07/17 13:46:03;;;;;;;3.10;3.00;;;37.90;25.40;;;;;;4996765;28;20455;-80
2022/07/17 13:48:30;;;;;;;2.20;2.10;;;38.20;26.50;;;;;;4997226;28;20493;-80
2022/07/17 13:50:57;;;;;;;2.77;2.67;;;38.40;25.40;;;;;;4996907;28;20447;-80
2022/07/17 13:53:23;;;;;;;2.53;2.43;;;38.50;25.40;;;;;;4997059;28;20455;-81
2022/07/17 13:55:51;;;;;;;2.80;2.60;;;38.30;24.40;;;;;;4996043;28;20443;-80
2022/07/17 13:58:18;;;;;;;3.00;2.80;;;38.40;24.80;;;;;;4997030;28;20970;-80
2022/07/17 14:00:46;;;;;;;2.50;2.37;;;38.70;25.50;;;;;;4996745;28;20455;-80
2022/07/17 14:03:13;;;;;;;3.00;2.80;;;38.40;25.90;;;;;;4996187;28;20487;-80
2022/07/17 14:05:39;;;;;;;2.97;2.77;;;38.50;24.20;;;;;;4998545;28;20470;-80
2022/07/17 14:08:06;;;;;;;2.13;2.03;;;38.20;24.20;;;;;;5003511;28;20471;-81
2022/07/17 14:10:34;;;;;;;2.80;2.60;;;38.20;23.30;;;;;;4996429;28;20459;-80
2022/07/17 14:13:02;;;;;;;2.10;2.00;;;38.30;22.50;;;;;;4998316;28;20469;-81
2022/07/17 14:15:28;;;;;;;1.90;1.80;;;38.10;23.00;;;;;;5000387;28;20458;-81
2022/07/17 14:17:55;;;;;;;2.10;2.00;;;38.00;22.30;;;;;;5000301;28;20477;-81
2022/07/17 14:20:22;;;;;;;2.23;2.13;;;37.40;22.90;;;;;;4999983;28;20458;-81
2022/07/17 14:22:49;;;;;;;2.63;2.43;;;37.30;23.70;;;;;;5000364;28;20491;-81
2022/07/17 14:25:15;;;;;;;2.37;2.27;;;37.10;23.20;;;;;;5000581;28;20462;-80
2022/07/17 14:27:42;;;;;;;2.07;1.97;;;37.10;23.40;;;;;;4999895;28;20477;-80
2022/07/17 14:30:11;;;;;;;2.40;2.30;;;37.60;23.00;;;;;;5000528;28;20460;-81
2022/07/17 14:32:38;;;;;;;2.40;2.30;;;38.00;23.80;;;;;;5000980;28;20463;-81
2022/07/17 14:35:05;;;;;;;2.30;2.20;;;38.50;23.00;;;;;;5000079;28;20455;-81
2022/07/17 14:37:32;;;;;;;2.13;2.03;;;38.50;23.00;;;;;;5000338;28;20475;-81
2022/07/17 14:39:59;;;;;;;1.93;1.83;;;38.70;22.90;;;;;;5001740;28;20447;-80
2022/07/17 14:42:25;;;;;;;2.20;2.10;;;39.80;23.90;;;;;;5000434;28;20483;-81
2022/07/17 14:44:52;;;;;;;3.03;2.23;;;40.40;22.00;;;;;;5000487;28;20455;-80
2022/07/17 14:47:21;;;;;;;2.60;2.50;;;40.90;21.20;;;;;;4999535;28;20463;-82
2022/07/17 14:49:47;;;;;;;2.60;2.40;;;40.90;19.80;;;;;;5000649;28;20968;-81
2022/07/17 14:52:14;;;;;;;2.17;2.07;;;39.80;19.50;;;;;;4999965;28;20447;-81
2022/07/17 14:54:41;;;;;;;2.60;2.40;;;40.50;20.60;;;;;;5000137;28;20454;-81
2022/07/17 14:57:07;;;;;;;2.90;2.10;;;40.20;21.00;;;;;;5008736;28;20451;-81
2022/07/17 14:59:34;;;;;;;2.20;2.10;;;40.80;20.80;;;;;;4999745;28;20454;-81
2022/07/17 15:02:01;;;;;;;2.33;2.23;;;40.20;20.10;;;;;;4998785;28;20482;-81
2022/07/17 15:04:29;;;;;;;2.43;2.33;;;39.50;21.20;;;;;;4999954;28;20934;-80
2022/07/17 15:06:56;;;;;;;1.80;1.70;;;39.20;20.90;;;;;;5005811;28;20462;-80
2022/07/17 15:09:22;;;;;;;2.37;2.27;;;39.30;21.00;;;;;;5004100;28;21016;-81
2022/07/17 15:11:49;;;;;;;2.37;2.27;;;39.40;21.10;;;;;;5000333;28;20451;-81
2022/07/17 15:14:16;;;;;;;2.07;1.97;;;39.40;20.70;;;;;;4999532;28;20842;-81
2022/07/17 15:16:44;;;;;;;2.17;2.00;;;39.50;20.60;;;;;;4999990;28;20442;-81
2022/07/17 15:19:10;;;;;;;2.30;2.20;;;38.70;21.10;;;;;;5000287;28;20471;-81
2022/07/17 15:21:39;;;;;;;4.20;2.10;;;39.40;22.40;;;;;;4999862;28;20443;-81
2022/07/17 15:24:06;;;;;;;2.30;2.10;;;39.70;21.80;;;;;;4998996;28;20498;-81
2022/07/17 15:26:33;;;;;;;2.10;1.90;;;40.80;21.90;;;;;;4998713;28;20459;-81
2022/07/17 15:29:00;;;;;;;2.50;2.30;;;41.50;20.80;;;;;;4999254;28;20830;-81
2022/07/17 15:31:27;;;;;;;2.17;1.97;;;42.10;21.20;;;;;;4998987;28;20502;-81
2022/07/17 15:33:54;;;;;;;2.40;2.20;;;42.90;20.50;;;;;;4998745;28;20455;-81
2022/07/17 15:36:25;;;;;;;2.50;2.30;;;43.60;19.80;;;;;;4998505;28;20828;-81
2022/07/17 15:38:56;;;;;;;2.63;2.30;;;43.90;19.60;;;;;;5000919;28;20966;-81
2022/07/17 15:41:24;;;;;;;2.77;2.50;;;43.70;19.30;;;;;;5007959;28;20459;-81
2022/07/17 15:43:51;;;;;;;2.00;1.90;;;43.50;19.00;;;;;;5008270;28;20923;-81
2022/07/17 15:46:17;;;;;;;2.37;2.27;;;43.10;18.90;;;;;;5011271;28;20454;-80
2022/07/17 15:48:44;;;;;;;4.33;2.20;;;42.30;19.10;;;;;;5008373;28;20566;-81
2022/07/17 15:51:11;;;;;;;2.10;2.00;;;43.00;20.40;;;;;;5004030;28;20447;-81
2022/07/17 15:53:37;;;;;;;2.20;2.00;;;43.80;19.90;;;;;;4998801;28;20458;-82
2022/07/17 15:56:06;;;;;;;2.37;2.27;;;44.40;19.10;;;;;;4998668;28;20954;-82
2022/07/17 15:58:32;;;;;;;2.20;2.00;;;44.20;19.30;;;;;;4998950;28;20475;-82
2022/07/17 16:00:59;;;;;;;3.60;2.10;;;44.00;19.00;;;;;;5001236;28;20458;-82
2022/07/17 16:03:26;;;;;;;2.20;2.00;;;43.80;19.90;;;;;;5000980;28;20495;-81
2022/07/17 16:05:53;;;;;;;2.23;2.10;;;43.90;18.90;;;;;;5000392;28;20455;-81
2022/07/17 16:08:19;;;;;;;2.30;2.20;;;44.20;19.50;;;;;;4999070;28;20470;-82
2022/07/17 16:10:46;;;;;;;2.57;2.37;;;45.10;19.40;;;;;;5001025;28;20470;-81
2022/07/17 16:13:14;;;;;;;2.50;2.40;;;45.20;18.60;;;;;;5005308;28;20443;-81
2022/07/17 16:15:41;;;;;;;3.00;2.80;;;44.40;18.70;;;;;;5006227;28;20463;-81
2022/07/17 16:18:08;;;;;;;2.60;2.37;;;44.00;19.00;;;;;;5000973;28;20483;-81
2022/07/17 16:20:35;;;;;;;2.20;2.07;;;43.30;19.10;;;;;;4997689;28;20826;-82
2022/07/17 16:23:01;;;;;;;2.20;2.10;;;43.80;19.80;;;;;;4997433;28;20997;-82
2022/07/17 16:25:28;;;;;;;2.60;2.50;;;44.20;19.90;;;;;;4997296;28;20838;-81
2022/07/17 16:27:55;;;;;;;2.30;2.20;;;44.70;19.70;;;;;;4997117;28;20482;-81
2022/07/17 16:30:23;;;;;;;2.50;2.30;;;44.90;19.00;;;;;;4997530;28;20463;-81
2022/07/17 16:32:50;;;;;;;2.40;2.30;;;45.30;18.90;;;;;;4997420;28;20937;-82
2022/07/17 16:35:16;;;;;;;2.20;2.10;;;45.60;18.80;;;;;;5009623;28;20830;-82
2022/07/17 16:37:43;;;;;;;2.50;2.30;;;45.80;18.80;;;;;;4998542;28;20477;-82
2022/07/17 16:40:11;;;;;;;2.40;2.30;;;46.10;18.90;;;;;;4998696;28;20470;-82
2022/07/17 16:42:38;;;;;;;2.23;2.13;;;46.10;18.80;;;;;;5000143;28;20487;-81
2022/07/17 16:45:06;;;;;;;2.67;2.57;;;44.60;18.30;;;;;;4998560;28;20450;-82
2022/07/17 16:47:34;;;;;;;2.30;2.20;;;44.10;18.80;;;;;;4997100;28;20483;-82
2022/07/17 16:50:01;;;;;;;2.20;2.10;;;43.70;19.80;;;;;;4997413;28;20451;-82
2022/07/17 16:52:27;;;;;;;3.07;2.87;;;44.00;19.80;;;;;;4997848;28;20450;-81
2022/07/17 16:54:54;;;;;;;2.00;1.90;;;44.00;19.50;;;;;;4997571;28;20823;-82
2022/07/17 16:57:21;;;;;;;2.00;1.90;;;44.00;19.40;;;;;;4997110;28;20451;-82
2022/07/17 16:59:48;;;;;;;2.70;2.60;;;44.30;19.80;;;;;;4997448;28;20462;-82
2022/07/17 17:02:15;;;;;;;2.60;2.30;;;43.30;19.10;;;;;;4997251;28;20455;-82
2022/07/17 17:04:43;;;;;;;2.40;2.30;;;42.70;20.00;;;;;;4996899;28;20499;-81
2022/07/17 17:07:10;;;;;;;2.67;2.47;;;41.60;19.80;;;;;;4996978;28;20455;-81
2022/07/17 17:09:37;;;;;;;2.80;2.60;;;41.80;20.20;;;;;;4997803;28;20455;-81
2022/07/17 17:12:06;;;;;;;2.37;2.27;;;42.00;20.70;;;;;;5000424;28;20463;-80
2022/07/17 17:14:33;;;;;;;2.50;2.40;;;40.40;20.60;;;;;;4997108;28;20455;-81
2022/07/17 17:17:00;;;;;;;2.70;2.60;;;40.60;22.00;;;;;;4996053;28;20465;-81
2022/07/17 17:19:27;;;;;;;2.67;2.47;;;40.70;21.60;;;;;;4996540;28;20474;-81
2022/07/17 17:21:55;;;;;;;2.43;2.33;;;40.80;22.20;;;;;;4996310;28;20451;-81
2022/07/17 17:24:21;;;;;;;2.30;2.20;;;41.00;21.50;;;;;;5005005;28;20491;-81
2022/07/17 17:26:48;;;;;;;2.60;2.47;;;41.30;21.40;;;;;;4997408;28;20454;-81
2022/07/17 17:29:15;;;;;;;2.33;2.23;;;41.30;21.10;;;;;;4996756;28;20498;-81
2022/07/17 17:31:42;;;;;;;2.47;2.37;;;41.30;21.20;;;;;;4996871;28;20455;-81
2022/07/17 17:34:08;;;;;;;2.83;2.60;;;40.50;21.50;;;;;;4997678;28;20447;-81
2022/07/17 17:36:36;;;;;;;2.30;2.10;;;39.70;21.40;;;;;;4997180;28;20514;-81
2022/07/17 17:39:05;;;;;;;2.77;2.30;;;38.70;22.30;;;;;;4997134;28;20486;-81
2022/07/17 17:41:32;;;;;;;2.33;2.23;;;37.90;22.80;;;;;;4997137;28;20470;-81
2022/07/17 17:43:58;;;;;;;1.77;1.63;;;36.90;24.30;;;;;;4996871;28;20494;-80
2022/07/17 17:46:25;;;;;;;2.00;1.90;;;35.60;24.40;;;;;;4996445;28;20947;-81
2022/07/17 17:48:52;;;;;;;2.63;1.80;;;34.20;25.30;;;;;;4996011;28;20494;-80
2022/07/17 17:51:19;;;;;;;2.27;2.13;;;33.50;25.90;;;;;;4996654;28;20453;-80
2022/07/17 17:53:46;;;;;;;2.10;1.90;;;33.30;26.20;;;;;;4997083;28;20443;-80
2022/07/17 17:56:14;;;;;;;2.50;2.37;;;32.60;26.50;;;;;;4996074;28;20470;-80
2022/07/17 17:58:41;;;;;;;2.53;2.33;;;33.20;26.80;;;;;;4996779;28;20555;-81
2022/07/17 18:01:07;;;;;;;2.50;2.13;;;33.10;26.70;;;;;;4996298;28;20447;-81
2022/07/17 18:03:34;;;;;;;2.23;2.13;;;33.30;26.60;;;;;;4996177;28;20483;-80
2022/07/17 18:06:01;;;;;;;1.80;1.70;;;33.50;26.70;;;;;;4996615;28;20451;-80
2022/07/17 18:08:29;;;;;;;2.37;2.27;;;33.60;26.50;;;;;;4996292;28;20497;-81
2022/07/17 18:10:56;;;;;;;2.13;1.87;;;33.80;26.50;;;;;;4996315;28;20458;-81
2022/07/17 18:13:24;;;;;;;2.10;2.00;;;33.80;26.10;;;;;;5003485;28;20836;-80
2022/07/17 18:15:51;;;;;;;2.73;2.43;;;33.80;26.50;;;;;;4997987;28;20451;-80
2022/07/17 18:18:18;;;;;;;1.90;1.80;;;33.20;26.40;;;;;;4996914;28;20472;-80
2022/07/17 18:20:45;;;;;;;2.07;1.97;;;33.20;26.90;;;;;;4996621;28;20462;-81
2022/07/17 18:23:11;;;;;;;2.20;2.00;;;33.40;26.60;;;;;;4995980;28;20482;-80
2022/07/17 18:25:38;;;;;;;2.03;1.93;;;33.80;26.50;;;;;;4996127;28;20462;-80
2022/07/17 18:28:08;;;;;;;2.10;1.87;;;33.60;26.40;;;;;;4996185;28;20467;-80
2022/07/17 18:30:37;;;;;;;2.17;2.07;;;33.40;26.30;;;;;;4995771;28;20462;-80
2022/07/17 18:33:04;;;;;;;1.90;1.80;;;33.00;26.50;;;;;;4996452;28;20454;-79
2022/07/17 18:35:31;;;;;;;2.23;2.13;;;32.10;26.70;;;;;;4996673;28;20468;-80
2022/07/17 18:37:58;;;;;;;4.10;2.03;;;31.60;27.40;;;;;;4996148;28;20504;-80
2022/07/17 18:40:25;;;;;;;2.17;2.07;;;31.40;27.90;;;;;;4996123;28;20496;-80
2022/07/17 18:42:52;;;;;;;2.60;2.40;;;30.90;28.20;;;;;;4996359;28;20459;-80
2022/07/17 18:45:19;;;;;;;2.20;2.10;;;30.80;28.90;;;;;;4996128;28;20488;-80
2022/07/17 18:47:47;;;;;;;2.33;2.23;;;30.50;29.10;;;;;;4996681;28;20490;-81
2022/07/17 18:50:14;;;;;;;2.43;2.00;;;30.00;29.40;;;;;;4995892;28;20459;-79
2022/07/17 18:52:41;;;;;;;2.33;2.13;;;29.50;29.70;;;;;;4995736;28;20513;-80
2022/07/17 18:55:08;;;;;;;2.33;2.17;;;29.30;30.30;;;;;;4996240;28;20450;-79
2022/07/17 18:57:35;;;;;;;3.00;2.07;;;28.80;30.30;;;;;;4995402;28;20482;-79
2022/07/17 19:00:02;;;;;;;2.70;2.50;;;28.40;31.30;;;;;;4999515;28;20480;-80
2022/07/17 19:02:28;;;;;;;2.67;2.40;;;28.30;31.20;;;;;;5004929;28;20474;-79
2022/07/17 19:04:57;;;;;;;2.30;2.10;;;27.90;31.30;;;;;;4999861;28;20493;-81
2022/07/17 19:07:23;;;;;;;1.80;1.70;;;27.50;31.90;;;;;;4999957;28;20446;-80
2022/07/17 19:09:50;;;;;;;2.80;2.50;;;27.10;32.60;;;;;;4999577;28;20462;-80
2022/07/17 19:12:17;;;;;;;1.87;1.63;;;27.00;33.00;;;;;;4999928;28;20465;-79
2022/07/17 19:14:45;;;;;;;4.53;3.83;;;26.70;32.90;;;;;;5004671;28;20935;-78
2022/07/17 19:17:12;;;;;;;7.53;5.60;;;26.50;33.60;;;;;;5005697;28;20830;-79
2022/07/17 19:19:39;;;;;;;6.30;5.27;;;26.20;33.70;;;;;;5000385;28;20471;-79
2022/07/17 19:22:07;;;;;;;5.70;4.70;;;26.10;34.20;;;;;;4999416;28;20461;-79
2022/07/17 19:24:35;;;;;;;6.33;5.77;;;25.90;34.70;;;;;;4999962;28;20494;-79
2022/07/17 19:27:02;;;;;;;8.33;7.63;;;25.80;35.00;;;;;;4999140;28;20466;-79
2022/07/17 19:29:29;;;;;;;6.87;4.27;;;25.70;35.60;;;;;;5000435;28;20471;-79
2022/07/17 19:31:56;;;;;;;9.60;5.67;;;25.60;35.60;;;;;;4999502;28;20794;-80
2022/07/17 19:34:23;;;;;;;3.30;2.73;;;25.50;36.00;;;;;;4998621;28;20462;-80
2022/07/17 19:36:50;;;;;;;5.07;4.37;;;25.30;36.30;;;;;;4998731;28;20461;-79
2022/07/17 19:39:18;;;;;;;6.10;4.63;;;25.20;37.30;;;;;;4999021;28;20484;-79
2022/07/17 19:41:45;;;;;;;3.40;3.10;;;25.10;37.20;;;;;;4999360;28;20477;-80
2022/07/17 19:44:12;;;;;;;3.47;2.70;;;25.00;37.30;;;;;;4999517;28;20513;-79
2022/07/17 19:46:40;;;;;;;4.90;4.50;;;25.00;37.40;;;;;;4998841;28;20461;-80
2022/07/17 19:49:07;;;;;;;5.80;4.80;;;24.90;37.50;;;;;;4999635;28;20487;-80
2022/07/17 19:51:34;;;;;;;5.50;5.00;;;24.90;37.70;;;;;;5001736;28;21034;-76
2022/07/17 19:54:01;;;;;;;5.40;3.33;;;24.80;37.90;;;;;;4999575;28;20460;-79
2022/07/17 19:56:29;;;;;;;4.33;3.87;;;24.80;38.30;;;;;;4998437;28;20527;-79
2022/07/17 19:58:57;;;;;;;5.33;4.83;;;24.60;38.30;;;;;;4998683;28;20483;-79
2022/07/17 20:01:24;;;;;;;5.50;4.67;;;24.50;38.60;;;;;;4998428;28;20432;-81
2022/07/17 20:03:52;;;;;;;2.87;2.67;;;24.40;39.00;;;;;;4998201;28;20470;-81
2022/07/17 20:06:19;;;;;;;3.43;3.13;;;24.40;38.90;;;;;;4998162;28;20456;-79
2022/07/17 20:08:46;;;;;;;4.17;3.80;;;24.30;39.10;;;;;;4998424;28;20556;-80
2022/07/17 20:11:13;;;;;;;2.77;2.57;;;24.20;39.40;;;;;;4997233;28;20882;-81
2022/07/17 20:13:41;;;;;;;3.20;2.60;;;24.10;39.50;;;;;;4998512;28;20887;-81
2022/07/17 20:16:08;;;;;;;7.30;2.70;;;24.00;39.90;;;;;;4998023;28;20464;-80
2022/07/17 20:18:36;;;;;;;4.80;2.57;;;23.90;40.20;;;;;;4998995;28;20471;-80
2022/07/17 20:21:03;;;;;;;2.37;2.03;;;23.80;40.20;;;;;;4998605;28;20454;-79
2022/07/17 20:23:30;;;;;;;2.90;2.73;;;23.80;40.30;;;;;;4998630;28;20449;-80
2022/07/17 20:25:57;;;;;;;3.97;2.63;;;23.70;40.70;;;;;;4998292;28;20885;-80
2022/07/17 20:28:24;;;;;;;2.80;2.60;;;23.60;40.60;;;;;;4998213;28;20560;-80
2022/07/17 20:30:52;;;;;;;2.90;2.70;;;23.50;40.60;;;;;;4998678;28;20451;-79
2022/07/17 20:33:19;;;;;;;3.40;3.10;;;23.40;41.00;;;;;;4999941;28;20467;-78
2022/07/17 20:35:46;;;;;;;3.73;2.97;;;23.30;41.30;;;;;;5004380;28;20838;-78
2022/07/17 20:38:13;;;;;;;3.60;2.80;;;23.30;41.60;;;;;;5004380;28;20467;-78
2022/07/17 20:40:40;;;;;;;2.07;1.87;;;23.20;41.90;;;;;;5005321;28;20460;-78
2022/07/17 20:43:08;;;;;;;2.60;2.40;;;23.10;41.50;;;;;;5008626;28;20452;-78
2022/07/17 20:45:35;;;;;;;2.87;2.67;;;23.00;41.60;;;;;;5004998;28;20507;-78
2022/07/17 20:48:04;;;;;;;2.80;2.60;;;22.90;42.10;;;;;;5004569;28;20485;-78
2022/07/17 20:50:32;;;;;;;3.17;2.90;;;22.90;43.10;;;;;;5005198;28;20465;-78
2022/07/17 20:52:59;;;;;;;3.57;3.27;;;22.80;43.50;;;;;;5005358;28;20462;-78
2022/07/17 20:55:26;;;;;;;3.30;2.80;;;22.80;43.50;;;;;;5005811;28;20498;-79
2022/07/17 20:57:55;;;;;;;3.30;3.07;;;22.70;43.90;;;;;;5004759;28;20990;-78
2022/07/17 21:00:22;;;;;;;3.63;3.20;;;22.60;44.30;;;;;;5005005;28;20469;-78
2022/07/17 21:02:50;;;;;;;5.47;4.03;;;22.60;44.70;;;;;;5004520;28;20455;-78
2022/07/17 21:05:18;;;;;;;2.87;2.67;;;22.50;45.00;;;;;;5005456;28;20451;-78
2022/07/17 21:07:45;;;;;;;3.10;2.90;;;22.40;45.20;;;;;;5005810;28;20462;-78
2022/07/17 21:10:11;;;;;;;3.07;2.87;;;22.30;45.50;;;;;;5004481;28;20454;-78
2022/07/17 21:12:38;;;;;;;3.37;3.17;;;22.10;45.80;;;;;;5004420;28;20483;-80
2022/07/17 21:15:06;;;;;;;2.80;2.67;;;22.00;45.70;;;;;;4997900;28;20494;-79
2022/07/17 21:17:33;;;;;;;2.90;2.70;;;22.00;45.50;;;;;;4997916;28;21008;-79
2022/07/17 21:20:01;;;;;;;2.27;2.17;;;21.90;45.90;;;;;;4998898;28;20461;-78
2022/07/17 21:22:31;;;;;;;3.23;2.53;;;21.90;46.00;;;;;;5002425;28;20447;-77
2022/07/17 21:24:59;;;;;;;3.57;3.23;;;21.90;46.50;;;;;;5006002;28;20455;-77
2022/07/17 21:27:28;;;;;;;2.30;2.20;;;21.80;46.60;;;;;;5004374;28;21068;-78
2022/07/17 21:29:55;;;;;;;3.17;2.87;;;21.70;47.10;;;;;;5000600;28;20839;-78
2022/07/17 21:32:21;;;;;;;2.73;2.53;;;21.60;47.30;;;;;;5010100;28;20457;-78
2022/07/17 21:34:48;;;;;;;5.07;2.87;;;21.60;47.70;;;;;;4998063;28;20495;-79
2022/07/17 21:37:15;;;;;;;2.47;2.27;;;21.50;47.70;;;;;;4997379;28;20452;-79
2022/07/17 21:39:43;;;;;;;2.87;2.37;;;21.50;47.90;;;;;;4997181;28;20459;-78
2022/07/17 21:42:10;;;;;;;2.70;2.57;;;21.40;47.70;;;;;;4997976;28;20461;-80
2022/07/17 21:44:37;;;;;;;3.40;2.80;;;21.10;47.80;;;;;;4998149;28;20459;-80
2022/07/17 21:47:03;;;;;;;3.40;2.20;;;21.10;47.80;;;;;;4997812;28;20455;-78
2022/07/17 21:49:30;;;;;;;3.13;2.30;;;21.10;47.90;;;;;;4996622;28;20493;-79
2022/07/17 21:51:57;;;;;;;4.20;2.50;;;20.90;48.30;;;;;;4996958;28;20484;-79
2022/07/17 21:54:24;;;;;;;2.60;2.40;;;21.00;48.40;;;;;;4997484;28;20488;-78
2022/07/17 21:56:52;;;;;;;2.47;2.30;;;21.00;49.00;;;;;;4996643;28;20459;-80
2022/07/17 21:59:19;;;;;;;3.33;3.03;;;21.00;49.10;;;;;;4996649;28;20475;-80
2022/07/17 22:01:47;;;;;;;2.90;2.70;;;21.00;49.50;;;;;;4996563;28;20461;-81
2022/07/17 22:04:14;;;;;;;3.30;2.60;;;20.90;49.90;;;;;;4997950;28;20442;-79
2022/07/17 22:06:41;;;;;;;2.73;2.60;;;20.90;49.90;;;;;;5003569;28;20462;-78
2022/07/17 22:09:09;;;;;;;3.27;3.07;;;20.80;50.30;;;;;;4996239;28;20487;-76
2022/07/17 22:11:36;;;;;;;3.47;3.23;;;20.80;50.50;;;;;;4999152;28;20810;-77
2022/07/17 22:14:05;;;;;;;3.10;2.90;;;20.70;50.70;;;;;;5006069;28;20465;-77
2022/07/17 22:16:32;;;;;;;4.70;2.87;;;20.60;51.20;;;;;;5003917;28;20522;-77
2022/07/17 22:18:59;;;;;;;3.47;3.17;;;20.60;51.50;;;;;;5005507;28;20467;-78
2022/07/17 22:21:26;;;;;;;2.90;2.53;;;20.60;51.40;;;;;;5005906;28;20451;-78
2022/07/17 22:23:54;;;;;;;4.23;3.17;;;20.60;51.60;;;;;;4996204;28;20457;-79
2022/07/17 22:26:22;;;;;;;3.30;2.33;;;20.60;51.90;;;;;;4996059;28;20449;-81
2022/07/17 22:28:49;;;;;;;3.67;3.30;;;20.50;52.00;;;;;;4995706;28;20477;-81
2022/07/17 22:31:18;;;;;;;4.50;4.00;;;20.50;52.60;;;;;;4995615;28;20459;-80
2022/07/17 22:33:44;;;;;;;3.33;2.93;;;20.40;53.10;;;;;;4997827;28;20462;-82
2022/07/17 22:36:11;;;;;;;6.63;3.03;;;20.30;53.40;;;;;;5000360;28;20603;-79
2022/07/17 22:38:38;;;;;;;3.13;2.90;;;20.30;53.50;;;;;;5000824;28;20492;-80
2022/07/17 22:41:05;;;;;;;3.60;3.33;;;20.30;53.60;;;;;;4999048;28;20540;-80
2022/07/17 22:43:31;;;;;;;3.40;3.03;;;20.30;53.70;;;;;;4999510;28;20532;-80
2022/07/17 22:45:58;;;;;;;3.30;3.07;;;20.20;53.70;;;;;;4999118;28;20444;-80
2022/07/17 22:48:27;;;;;;;2.83;2.63;;;20.20;53.50;;;;;;4998884;28;20996;-79
2022/07/17 22:50:54;;;;;;;3.10;2.80;;;20.20;53.70;;;;;;4999349;28;20837;-80
2022/07/17 22:53:21;;;;;;;3.63;3.40;;;20.10;53.70;;;;;;4998397;28;20932;-78
2022/07/17 22:55:48;;;;;;;3.90;3.60;;;20.10;53.90;;;;;;4997468;28;20844;-78
2022/07/17 22:58:15;;;;;;;3.40;3.10;;;20.10;54.20;;;;;;4998185;28;20488;-79
2022/07/17 23:00:43;;;;;;;3.47;3.17;;;20.00;54.20;;;;;;4998123;28;20954;-79
2022/07/17 23:03:10;;;;;;;2.80;2.60;;;20.00;54.00;;;;;;4999515;28;20456;-80
2022/07/17 23:05:38;;;;;;;3.13;2.93;;;19.90;51.50;;;;;;4999316;28;20479;-80
2022/07/17 23:08:06;;;;;;;2.80;2.60;;;19.90;50.60;;;;;;4999782;28;20551;-79
2022/07/17 23:10:33;;;;;;;2.80;2.60;;;19.80;50.90;;;;;;5005576;28;20456;-80
2022/07/17 23:13:00;;;;;;;3.30;3.00;;;19.80;51.00;;;;;;5003014;28;20457;-82